aviador You're here:

UTAV Decoded Metar

CHARDZHOU in RUSSIA
Report Time2017-11-22 23:00:00
UTC Time2017-11-22 23:39:49
Flight Rules mvfr MVFR
Wind140° at 06 kt
W.Decomp.*RWY 15: 5.8 kt HW 1.5 kt LCW
W.Rank140° ranks 11
Current wind is above 140° avg. (5.7)
Visibility7000 m
Phenomena:N/A
Clouds:Overcast 100 Hf
Expected CloudBase > 6,400 ft AGL from Temp-Dew spread
Ceiling10,000 ft
Temp11°C (ISA -3)
Dew Point-5°C (32% RH)
AAT6.2°C
QNH1010 hPa
Density Alt466 ft
Elevation630 ft
Report Wrong Elevation
Raw Report
UTAV 222300Z 14006KT 7000 OVC100 11/M05 Q1010 NOSIG=

Extra information for UTAV:More info

Metar Taf Metar & Taf Last 4 Metars F.Rules Stats Wind Profile Meteogram Temp Stats Airport Information Weather charts Add Link Nearby VenuesMetar ALERT Operation Metar Decoded Social comments